CheckWX is a tool to help pilots better visualize weather data.  It is not intended as a substitute for an official pre-flight weather briefing.

12:25:08 UTC

EKVD TAF
Kolding Vamdrup Airport
Kolding / Vamdrup, Denmark
TAF EKVD 221201Z 2212/2217 21008KT 2000 BR BKN002 BECMG 2212/2214 6000 NSW BKN008 BECMG 2214/2217 BKN015

Mar-22@
12:00 UTC

Mar-22 @ 12:00 UTC

Mar-22@
17:00 UTC

Mar-22 @ 17:00 UTC

TAF EKVD 221201Z 2212/2217 21008KT 2000 BR BKN002
Wind
  • 210° at 8 KTS
Conditions
Mist
Cloud Levels
  • Broken at 200' AGL

Mar-22@
12:00 UTC

Mar-22 @ 12:00 UTC

Mar-22@
14:00 UTC

Mar-22 @ 14:00 UTC

BECMG 2212/2214 6000 NSW BKN008

Becoming

Becoming Conditions expected by Fri, Mar 22, 2019 @ 14:00 UTC

Wind
  • 210° at 8 KTS
Conditions
No significant weather
Cloud Levels
  • Broken at 800' AGL

Mar-22@
14:00 UTC

Mar-22 @ 14:00 UTC

Mar-22@
17:00 UTC

Mar-22 @ 17:00 UTC

BECMG 2214/2217 BKN015

Becoming

Becoming Conditions expected by Fri, Mar 22, 2019 @ 17:00 UTC

Wind
  • 210° at 8 KTS
Conditions
No significant weather
Cloud Levels
  • Broken at 1,500' AGL